Weather at Bell Helicopter Hurst Heliport

Public forecast

Using degrees Fahrenheit for public forecast. Weather courtesy of forecast.io.

Closest aviation weather report (METAR) to Bell Helicopter Hurst Heliport

Closest report is Grand Prairie Municipal Airport, 8.6 nm (15.9 km) SE.

2024/07/18 17:50 (retrieved 43 minutes ago)

KGPM 181750Z 35004KT 10SM SCT039 BKN044 32/19 A3008

Closest aviation forecast (TAF) to Bell Helicopter Hurst Heliport

Closest forecast is Dallas Fort Worth International Airport, 8.7 nm (16.2 km) NE.

2024/07/18 18:09 Ammendment (retrieved 24 minutes ago)

TAF AMD KDFW 181806Z 1818/1924 01008KT P6SM VCTS BKN040CB FM181900 02010KT P6SM VCTS BKN050CB FM182300 03009KT P6SM SCT050 SCT250